createdAt,value
2022-08-18T00:00:11.021Z,52.69
2022-08-18T00:02:56.679Z,53.12
2022-08-18T00:05:31.843Z,53.16
2022-08-18T00:08:02.931Z,53.56
2022-08-18T00:10:34.174Z,54.11
2022-08-18T00:13:05.215Z,54.39
2022-08-18T00:15:46.442Z,54.39
2022-08-18T00:18:20.033Z,54.96
2022-08-18T00:20:50.390Z,55.09
2022-08-18T00:23:20.772Z,55.58
2022-08-18T00:25:51.065Z,55.88
2022-08-18T00:28:23.951Z,55.66
2022-08-18T00:30:54.607Z,55.88
2022-08-18T00:33:25.013Z,56.32
2022-08-18T00:35:56.583Z,56.46
2022-08-18T00:38:27.017Z,56.68
2022-08-18T00:40:58.219Z,56.78
2022-08-18T00:43:33.454Z,56.89
2022-08-18T00:46:04.602Z,57.03
2022-08-18T00:48:34.951Z,57.21
2022-08-18T00:51:08.701Z,57.33
2022-08-18T00:53:45.779Z,57.35
2022-08-18T00:56:22.560Z,57.42
2022-08-18T00:58:59.401Z,57.31
2022-08-18T01:01:32.753Z,57.34
2022-08-18T01:04:09.326Z,57.37
2022-08-18T01:06:44.256Z,57.55
2022-08-18T01:09:17.960Z,57.56
2022-08-18T01:11:51.613Z,57.52
2022-08-18T01:14:22.855Z,57.50
2022-08-18T01:17:11.819Z,57.48
2022-08-18T01:20:00.660Z,57.48
2022-08-18T01:22:34.872Z,57.77
2022-08-18T01:25:26.344Z,58.05
2022-08-18T01:28:00.868Z,57.87
2022-08-18T01:30:35.046Z,58.03
2022-08-18T01:33:10.560Z,58.08
2022-08-18T01:35:43.225Z,58.05
2022-08-18T01:38:13.944Z,57.91
2022-08-18T01:41:23.007Z,57.89
2022-08-18T01:43:36.683Z,57.97
2022-08-18T01:46:09.156Z,58.00
2022-08-18T01:48:42.575Z,57.91
2022-08-18T01:51:14.616Z,58.00
2022-08-18T01:53:47.051Z,57.85
2022-08-18T01:56:18.748Z,57.95
2022-08-18T01:58:50.194Z,58.15
2022-08-18T02:01:36.353Z,58.10
2022-08-18T02:04:33.952Z,58.18
2022-08-18T02:07:04.334Z,58.20
2022-08-18T02:09:38.010Z,58.35
2022-08-18T02:12:17.524Z,58.28
2022-08-18T02:14:50.512Z,58.42
2022-08-18T02:17:22.888Z,58.46
2022-08-18T02:19:53.772Z,58.41
2022-08-18T02:22:24.348Z,58.51
2022-08-18T02:24:54.834Z,58.47
2022-08-18T02:27:25.325Z,58.47
2022-08-18T02:29:56.248Z,58.42
2022-08-18T02:32:26.638Z,58.45
2022-08-18T02:35:00.372Z,58.45
2022-08-18T02:37:31.962Z,58.50
2022-08-18T02:40:02.686Z,58.50
2022-08-18T02:42:33.116Z,58.50
2022-08-18T02:45:03.476Z,58.43
2022-08-18T02:47:33.939Z,58.39
2022-08-18T02:50:04.608Z,58.50
2022-08-18T02:52:34.966Z,58.43
2022-08-18T02:55:06.066Z,58.86
2022-08-18T02:57:37.172Z,58.84
2022-08-18T03:00:11.483Z,58.82
2022-08-18T03:02:46.729Z,58.79
2022-08-18T03:05:18.044Z,58.90
2022-08-18T03:07:50.378Z,58.97
2022-08-18T03:10:33.329Z,59.12
2022-08-18T03:13:06.331Z,59.05
2022-08-18T03:15:39.212Z,59.24
2022-08-18T03:18:12.700Z,59.54
2022-08-18T03:20:44.725Z,59.55
2022-08-18T03:23:19.237Z,59.73
2022-08-18T03:26:00.926Z,59.62
2022-08-18T03:28:32.235Z,59.57
2022-08-18T03:31:02.629Z,59.83
2022-08-18T03:33:33.388Z,59.79
2022-08-18T03:36:07.880Z,59.80
2022-08-18T03:38:38.466Z,59.97
2022-08-18T03:41:11.290Z,59.98
2022-08-18T03:43:51.424Z,60.01
2022-08-18T03:46:23.239Z,60.00
2022-08-18T03:48:54.286Z,60.12
2022-08-18T03:51:27.835Z,59.97
2022-08-18T03:54:00.606Z,59.91
2022-08-18T03:56:33.851Z,59.98
2022-08-18T03:59:07.851Z,60.14
2022-08-18T04:01:42.354Z,60.17
2022-08-18T04:04:17.255Z,60.31
2022-08-18T04:06:51.377Z,60.41
2022-08-18T04:09:25.253Z,60.37
2022-08-18T04:11:58.846Z,59.96
2022-08-18T04:14:32.298Z,59.21
2022-08-18T04:17:03.993Z,58.75
2022-08-18T04:19:36.135Z,58.32
2022-08-18T04:22:07.585Z,57.85
2022-08-18T04:24:39.305Z,57.50
2022-08-18T04:27:13.494Z,57.32
2022-08-18T04:29:45.305Z,57.06
2022-08-18T04:32:17.648Z,57.08
2022-08-18T04:34:50.210Z,56.91
2022-08-18T04:37:22.612Z,56.80
2022-08-18T04:39:55.414Z,56.93
2022-08-18T04:42:28.912Z,57.18
2022-08-18T04:45:01.670Z,57.17
2022-08-18T04:47:34.673Z,57.13
2022-08-18T04:50:07.617Z,57.08
2022-08-18T04:53:08.531Z,56.41
2022-08-18T04:55:40.391Z,56.12
2022-08-18T04:58:13.077Z,55.79
2022-08-18T05:08:01.110Z,54.98
2022-08-18T05:10:31.996Z,54.54
2022-08-18T05:13:02.269Z,54.38
2022-08-18T05:15:52.749Z,54.27
2022-08-18T05:18:25.114Z,53.94
2022-08-18T05:20:58.529Z,53.84
2022-08-18T05:23:31.562Z,53.59
2022-08-18T05:26:03.583Z,53.30
2022-08-18T05:28:37.041Z,53.32
2022-08-18T05:31:13.926Z,53.33
2022-08-18T05:33:45.126Z,53.16
2022-08-18T05:36:25.806Z,53.11
2022-08-18T05:39:04.827Z,53.12
2022-08-18T05:41:37.523Z,53.18
2022-08-18T05:44:10.074Z,53.44
2022-08-18T05:46:41.413Z,53.54
2022-08-18T05:49:13.203Z,53.51
2022-08-18T05:51:46.041Z,53.45
2022-08-18T05:54:35.326Z,53.70
2022-08-18T05:57:09.548Z,53.93
2022-08-18T05:59:42.828Z,54.30
2022-08-18T06:02:16.856Z,54.95
2022-08-18T06:04:50.277Z,55.46
2022-08-18T06:07:25.133Z,55.71
2022-08-18T06:09:56.833Z,55.86
2022-08-18T06:12:32.714Z,56.09
2022-08-18T06:15:14.602Z,56.16
2022-08-18T06:18:04.563Z,56.24
2022-08-18T06:20:38.764Z,56.22
2022-08-18T06:23:22.291Z,56.00
2022-08-18T06:26:02.709Z,55.91
2022-08-18T06:28:40.403Z,55.96
2022-08-18T06:31:15.234Z,55.74
2022-08-18T06:33:54.546Z,55.69
2022-08-18T06:36:35.453Z,55.49
2022-08-18T06:39:13.679Z,55.29
2022-08-18T06:41:49.002Z,54.96
2022-08-18T06:44:29.189Z,55.15
2022-08-18T06:47:04.708Z,55.06
2022-08-18T06:49:40.750Z,55.03
2022-08-18T06:52:27.055Z,55.12
2022-08-18T06:54:59.199Z,55.25
2022-08-18T06:57:34.557Z,55.29
2022-08-18T07:00:11.268Z,55.16
2022-08-18T07:02:47.343Z,55.18
2022-08-18T07:05:24.016Z,55.31
2022-08-18T07:08:12.829Z,55.35
2022-08-18T07:10:45.028Z,55.41
2022-08-18T07:13:22.052Z,55.57
2022-08-18T07:15:52.520Z,55.74
2022-08-18T07:18:28.611Z,55.61
2022-08-18T07:21:01.211Z,55.96
2022-08-18T07:23:38.277Z,56.30
2022-08-18T07:26:15.160Z,56.53
2022-08-18T07:28:47.958Z,56.56
2022-08-18T07:31:30.908Z,56.46
2022-08-18T07:34:04.742Z,56.90
2022-08-18T07:36:38.211Z,56.59
2022-08-18T07:39:15.459Z,56.77
2022-08-18T07:41:52.063Z,57.06
2022-08-18T07:44:33.904Z,57.53
2022-08-18T07:47:08.245Z,58.12
2022-08-18T07:49:54.625Z,58.20
2022-08-18T07:52:44.453Z,58.24
2022-08-18T07:55:26.735Z,58.38
2022-08-18T07:58:01.528Z,58.74
2022-08-18T08:00:57.525Z,59.02
2022-08-18T08:03:35.820Z,58.92
2022-08-18T08:06:11.698Z,59.22
2022-08-18T08:08:48.752Z,59.47
2022-08-18T08:11:26.654Z,59.42
2022-08-18T08:14:07.110Z,59.50
2022-08-18T08:16:47.226Z,59.50
2022-08-18T08:19:59.641Z,59.51
2022-08-18T08:22:36.271Z,59.46
2022-08-18T08:25:35.108Z,59.48
2022-08-18T08:28:10.135Z,59.32
2022-08-18T08:30:45.557Z,59.07
2022-08-18T08:33:23.493Z,59.14
2022-08-18T08:35:56.051Z,58.90
2022-08-18T08:38:43.070Z,58.36
2022-08-18T08:41:19.850Z,58.11
2022-08-18T08:43:57.801Z,58.22
2022-08-18T08:46:30.932Z,57.87
2022-08-18T08:49:07.420Z,58.41
2022-08-18T08:51:40.917Z,58.66
2022-08-18T08:54:16.146Z,57.92
2022-08-18T08:56:48.301Z,57.29
2022-08-18T08:59:21.717Z,57.18
2022-08-18T09:01:59.690Z,57.75
2022-08-18T09:04:36.830Z,57.27
2022-08-18T09:07:18.184Z,57.07
2022-08-18T09:09:58.189Z,56.41
2022-08-18T09:12:39.665Z,56.83
2022-08-18T09:15:21.880Z,56.92
2022-08-18T09:18:08.138Z,57.08
2022-08-18T09:20:53.157Z,57.18
2022-08-18T09:23:25.796Z,57.01
2022-08-18T09:25:58.524Z,56.95
2022-08-18T09:31:23.725Z,56.42
2022-08-18T09:34:23.232Z,56.39
2022-08-18T09:37:04.453Z,56.79
2022-08-18T09:39:55.240Z,56.56
2022-08-18T09:42:49.753Z,56.41
2022-08-18T09:45:57.488Z,56.47
2022-08-18T09:48:36.788Z,56.81
2022-08-18T09:51:40.023Z,56.58
2022-08-18T09:54:14.543Z,56.51
2022-08-18T09:57:21.006Z,56.64
2022-08-18T10:00:00.800Z,56.24
2022-08-18T10:03:03.824Z,56.55
2022-08-18T10:05:36.831Z,56.64
2022-08-18T10:08:37.850Z,56.66
2022-08-18T10:11:32.933Z,57.26
2022-08-18T10:14:18.941Z,57.38
2022-08-18T10:19:53.841Z,57.60
2022-08-18T10:22:47.929Z,58.50
2022-08-18T10:25:35.046Z,58.15
2022-08-18T10:28:07.056Z,57.88
2022-08-18T10:31:06.383Z,58.44
2022-08-18T10:34:05.534Z,58.27
2022-08-18T10:36:51.633Z,57.99
2022-08-18T10:39:24.679Z,57.99
2022-08-18T10:42:14.854Z,57.81
2022-08-18T10:44:46.803Z,57.72
2022-08-18T10:47:25.478Z,57.28
2022-08-18T10:50:08.730Z,57.05
2022-08-18T10:53:17.057Z,57.15
2022-08-18T10:55:50.108Z,57.33
2022-08-18T10:58:40.213Z,57.76
2022-08-18T11:01:18.637Z,57.64
2022-08-18T11:04:33.579Z,58.16
2022-08-18T11:07:09.764Z,58.81
2022-08-18T11:09:42.092Z,58.64
2022-08-18T11:12:14.942Z,58.40
2022-08-18T11:15:21.151Z,59.38
2022-08-18T11:18:06.611Z,60.06
2022-08-18T11:20:43.220Z,59.77
2022-08-18T11:23:18.761Z,60.38
2022-08-18T11:25:49.681Z,60.40
2022-08-18T11:28:21.281Z,60.65
2022-08-18T11:30:53.811Z,61.36
2022-08-18T11:33:24.792Z,60.78
2022-08-18T11:35:58.394Z,60.83
2022-08-18T11:38:31.734Z,60.36
2022-08-18T11:41:18.659Z,59.60
2022-08-18T11:43:50.849Z,58.36
2022-08-18T11:46:31.961Z,56.49
2022-08-18T11:49:15.599Z,54.33
2022-08-18T11:52:02.239Z,51.83
2022-08-18T11:54:50.086Z,48.13
2022-08-18T11:57:46.229Z,46.29
2022-08-18T12:01:01.620Z,46.43
2022-08-18T12:03:42.246Z,45.16
2022-08-18T12:09:30.624Z,41.61
2022-08-18T12:12:18.309Z,40.00
2022-08-18T12:15:04.854Z,39.74
2022-08-18T12:17:52.308Z,39.72
2022-08-18T12:26:38.810Z,36.59
2022-08-18T12:32:00.663Z,34.91
2022-08-18T12:34:33.538Z,34.05
2022-08-18T12:37:10.287Z,33.72
2022-08-18T12:39:55.637Z,32.93
2022-08-18T12:42:28.526Z,32.38
2022-08-18T12:45:01.779Z,31.61
2022-08-18T12:47:32.567Z,31.96
2022-08-18T12:50:11.507Z,31.59
2022-08-18T12:52:44.175Z,30.03
2022-08-18T12:58:06.034Z,29.09
2022-08-18T13:00:39.559Z,28.99
2022-08-18T13:03:11.080Z,29.18
2022-08-18T13:05:41.892Z,29.24
2022-08-18T13:08:30.113Z,29.03
2022-08-18T13:11:15.320Z,28.96
2022-08-18T13:13:57.546Z,29.10
2022-08-18T13:16:38.860Z,28.29
2022-08-18T13:19:10.839Z,28.39
2022-08-18T13:21:41.359Z,27.65
2022-08-18T13:24:13.681Z,26.62
2022-08-18T13:26:49.107Z,26.34
2022-08-18T13:29:22.277Z,26.81
2022-08-18T13:31:58.801Z,27.67
2022-08-18T13:34:31.122Z,28.20
2022-08-18T13:37:01.580Z,27.31
2022-08-18T13:39:33.975Z,26.37
2022-08-18T13:42:26.210Z,25.38
2022-08-18T13:44:57.150Z,25.00
2022-08-18T13:47:29.240Z,23.57
2022-08-18T13:50:00.857Z,23.21
2022-08-18T13:52:37.002Z,22.23
2022-08-18T13:55:14.056Z,22.64
2022-08-18T13:57:49.680Z,22.94
2022-08-18T14:00:29.637Z,22.88
2022-08-18T14:03:02.182Z,22.47
2022-08-18T14:05:36.529Z,22.17
2022-08-18T14:08:24.073Z,22.11
2022-08-18T14:10:58.027Z,23.05
2022-08-18T14:13:29.363Z,24.32
2022-08-18T14:16:10.515Z,24.73
2022-08-18T14:18:40.955Z,25.90
2022-08-18T14:21:33.505Z,27.00
2022-08-18T14:24:22.588Z,28.11
2022-08-18T14:26:55.656Z,28.50
2022-08-18T14:29:47.297Z,29.44
2022-08-18T14:32:18.036Z,30.62
2022-08-18T14:34:53.407Z,31.26
2022-08-18T14:37:31.990Z,32.02
2022-08-18T14:40:05.267Z,30.99
2022-08-18T14:42:54.273Z,29.34
2022-08-18T14:45:31.459Z,27.41
2022-08-18T14:48:06.558Z,26.17
2022-08-18T14:50:38.184Z,25.15
2022-08-18T14:53:08.965Z,24.53
2022-08-18T14:55:43.078Z,24.93
2022-08-18T14:58:13.481Z,25.80
2022-08-18T15:00:53.760Z,26.59
2022-08-18T15:03:30.818Z,26.84
2022-08-18T15:06:04.608Z,27.62
2022-08-18T15:08:36.018Z,27.88
2022-08-18T15:11:11.865Z,29.23
2022-08-18T15:13:45.232Z,30.17
2022-08-18T15:16:18.531Z,30.09
2022-08-18T15:18:50.035Z,30.31
2022-08-18T15:21:39.867Z,31.41
2022-08-18T15:24:28.548Z,32.91
2022-08-18T15:27:05.809Z,33.73
2022-08-18T15:29:37.221Z,34.15
2022-08-18T15:32:15.252Z,34.40
2022-08-18T15:34:51.032Z,34.33
2022-08-18T15:37:24.514Z,34.21
2022-08-18T15:40:05.567Z,34.66
2022-08-18T15:42:36.147Z,35.32
2022-08-18T15:45:11.794Z,35.69
2022-08-18T15:47:44.385Z,36.02
2022-08-18T15:50:25.317Z,36.02
2022-08-18T15:52:58.741Z,36.00
2022-08-18T15:55:35.937Z,36.38
2022-08-18T15:58:10.897Z,36.71
2022-08-18T16:00:45.562Z,37.54
2022-08-18T16:03:17.655Z,37.94
2022-08-18T16:05:51.573Z,38.59
2022-08-18T16:08:26.178Z,39.03
2022-08-18T16:10:57.429Z,39.32
2022-08-18T16:13:29.534Z,39.72
2022-08-18T16:16:01.763Z,40.04
2022-08-18T16:18:32.933Z,39.99
2022-08-18T16:21:10.627Z,40.33
2022-08-18T16:23:42.625Z,40.69
2022-08-18T16:28:52.394Z,41.08
2022-08-18T16:31:28.215Z,41.16
2022-08-18T16:33:59.896Z,41.23
2022-08-18T16:36:30.534Z,41.35
2022-08-18T16:39:01.236Z,41.40
2022-08-18T16:41:31.797Z,41.68
2022-08-18T16:44:02.681Z,41.95
2022-08-18T16:46:33.251Z,42.21
2022-08-18T16:49:06.656Z,42.68
2022-08-18T16:52:28.177Z,42.92
2022-08-18T16:54:58.705Z,43.42
2022-08-18T16:57:53.905Z,43.81
2022-08-18T17:00:44.307Z,44.03
2022-08-18T17:03:32.410Z,44.27
2022-08-18T17:06:04.517Z,44.63
2022-08-18T17:08:35.126Z,44.83
2022-08-18T17:11:06.689Z,45.22
2022-08-18T17:13:38.868Z,45.46
2022-08-18T17:16:09.743Z,45.67
2022-08-18T17:18:41.079Z,45.93
2022-08-18T17:21:13.654Z,46.15
2022-08-18T17:23:44.221Z,46.25
2022-08-18T17:26:21.932Z,46.39
2022-08-18T17:28:58.048Z,46.61
2022-08-18T17:31:29.719Z,46.59
2022-08-18T17:34:04.420Z,46.85
2022-08-18T17:36:37.273Z,46.93
2022-08-18T17:39:16.189Z,47.11
2022-08-18T17:42:30.545Z,47.15
2022-08-18T17:45:05.028Z,47.42
2022-08-18T17:47:39.207Z,47.55
2022-08-18T17:50:44.260Z,47.82
2022-08-18T17:53:15.148Z,47.81
2022-08-18T17:55:48.725Z,48.05
2022-08-18T17:58:26.851Z,47.98
2022-08-18T18:00:57.351Z,48.34
2022-08-18T18:03:29.634Z,48.33
2022-08-18T18:08:53.706Z,48.51
2022-08-18T18:11:31.989Z,48.60
2022-08-18T18:14:24.096Z,48.73
2022-08-18T18:17:07.081Z,48.88
2022-08-18T18:19:37.877Z,48.86
2022-08-18T18:22:11.070Z,48.84
2022-08-18T18:24:41.979Z,48.99
2022-08-18T18:27:31.946Z,48.97
2022-08-18T18:30:05.953Z,49.02
2022-08-18T18:32:38.834Z,49.25
2022-08-18T18:35:16.574Z,49.36
2022-08-18T18:37:51.619Z,49.34
2022-08-18T18:40:32.479Z,50.05
2022-08-18T18:43:22.453Z,51.34
2022-08-18T18:46:16.644Z,52.71
2022-08-18T18:48:54.091Z,53.14
2022-08-18T18:51:33.393Z,53.46
2022-08-18T18:54:10.180Z,54.70
2022-08-18T18:56:45.613Z,55.00
2022-08-18T18:59:25.560Z,55.32
2022-08-18T19:02:01.003Z,55.58
2022-08-18T19:04:47.748Z,55.76
2022-08-18T19:07:25.462Z,55.82
2022-08-18T19:10:01.258Z,55.66
2022-08-18T19:12:34.862Z,55.44
2022-08-18T19:15:08.441Z,55.29
2022-08-18T19:17:43.265Z,54.95
2022-08-18T19:20:19.005Z,54.69
2022-08-18T19:22:54.375Z,54.38
2022-08-18T19:25:28.718Z,54.15
2022-08-18T19:28:02.887Z,53.94
2022-08-18T19:30:35.921Z,53.76
2022-08-18T19:33:08.342Z,53.77
2022-08-18T19:35:39.324Z,53.83
2022-08-18T19:38:20.959Z,53.93
2022-08-18T19:40:57.700Z,53.92
2022-08-18T19:43:36.342Z,53.85
2022-08-18T19:46:13.677Z,54.08
2022-08-18T19:48:51.351Z,53.99
2022-08-18T19:51:25.447Z,53.80
2022-08-18T19:54:09.518Z,53.57
2022-08-18T19:56:49.616Z,53.63
2022-08-18T19:59:39.854Z,53.85
2022-08-18T20:02:26.853Z,53.67
2022-08-18T20:05:08.360Z,53.67
2022-08-18T20:07:56.437Z,53.27
2022-08-18T20:10:36.961Z,52.97
2022-08-18T20:13:24.498Z,53.04
2022-08-18T20:16:13.064Z,52.81
2022-08-18T20:18:44.892Z,52.85
2022-08-18T20:21:41.896Z,52.65
2022-08-18T20:24:35.308Z,52.37
2022-08-18T20:27:32.928Z,52.26
2022-08-18T20:30:27.338Z,52.14
2022-08-18T20:33:18.810Z,52.12
2022-08-18T20:36:04.127Z,52.22
2022-08-18T20:38:36.804Z,52.18
2022-08-18T20:41:29.557Z,52.21
2022-08-18T20:44:00.230Z,52.21
2022-08-18T20:46:42.634Z,52.38
2022-08-18T20:49:23.120Z,52.16
2022-08-18T20:52:00.467Z,52.32
2022-08-18T20:54:42.409Z,52.36
2022-08-18T20:57:29.851Z,52.31
2022-08-18T21:00:02.234Z,52.51
2022-08-18T21:02:40.653Z,52.55
2022-08-18T21:05:27.473Z,52.86
2022-08-18T21:08:05.865Z,52.79
2022-08-18T21:10:36.675Z,52.66
2022-08-18T21:13:07.854Z,52.50
2022-08-18T21:15:39.240Z,52.65
2022-08-18T21:18:22.750Z,52.68
2022-08-18T21:20:55.482Z,52.59
2022-08-18T21:23:29.381Z,52.72
2022-08-18T21:26:01.299Z,52.67
2022-08-18T21:28:39.242Z,52.63
2022-08-18T21:31:41.654Z,52.84
2022-08-18T21:34:18.278Z,52.65
2022-08-18T21:36:54.800Z,52.80
2022-08-18T21:39:25.323Z,52.81
2022-08-18T21:41:58.335Z,52.93
2022-08-18T21:44:37.525Z,53.06
2022-08-18T21:47:14.759Z,53.21
2022-08-18T21:49:59.617Z,53.23
2022-08-18T21:52:31.680Z,53.26
2022-08-18T21:55:06.232Z,53.59
2022-08-18T21:58:03.120Z,53.73
2022-08-18T22:00:35.542Z,53.87
2022-08-18T22:03:19.092Z,54.16
2022-08-18T22:05:59.565Z,54.08
2022-08-18T22:08:33.286Z,54.20
2022-08-18T22:11:59.829Z,54.39
2022-08-18T22:14:36.019Z,54.31
2022-08-18T22:17:33.607Z,54.43
2022-08-18T22:20:40.571Z,54.46
2022-08-18T22:23:42.579Z,54.56
2022-08-18T22:26:15.816Z,54.81
2022-08-18T22:29:00.764Z,54.98
2022-08-18T22:31:34.904Z,55.24
2022-08-18T22:34:08.328Z,55.09
2022-08-18T22:36:45.098Z,55.28
2022-08-18T22:39:19.968Z,55.45
2022-08-18T22:41:51.026Z,55.64
2022-08-18T22:44:23.337Z,55.43
2022-08-18T22:46:54.276Z,55.53
2022-08-18T22:49:25.802Z,55.51
2022-08-18T22:51:58.201Z,55.64
2022-08-18T22:54:29.340Z,55.55
2022-08-18T22:57:01.506Z,55.53
2022-08-18T22:59:32.878Z,55.88
2022-08-18T23:02:06.043Z,55.73
2022-08-18T23:04:37.438Z,55.80
2022-08-18T23:07:08.621Z,55.89
2022-08-18T23:09:41.424Z,55.79
2022-08-18T23:12:17.340Z,56.01
2022-08-18T23:14:57.727Z,56.04
2022-08-18T23:17:28.894Z,55.91
2022-08-18T23:20:00.162Z,55.94
2022-08-18T23:22:33.612Z,55.93
2022-08-18T23:25:09.093Z,55.99
2022-08-18T23:27:41.151Z,55.97
2022-08-18T23:30:13.943Z,55.80
2022-08-18T23:32:45.075Z,55.79
2022-08-18T23:35:17.671Z,55.91
2022-08-18T23:37:51.778Z,56.16
2022-08-18T23:40:25.278Z,56.04
2022-08-18T23:42:56.873Z,56.08
2022-08-18T23:45:29.137Z,56.07
2022-08-18T23:48:00.494Z,56.13
2022-08-18T23:50:32.631Z,56.24
2022-08-18T23:53:04.711Z,56.31
2022-08-18T23:55:38.655Z,56.41
2022-08-18T23:58:12.617Z,56.52
